sensor_id;sensor_type;location;lat;lon;timestamp;P1;durP1;ratioP1;P2;durP2;ratioP2
19691;SDS011;42748;50.016;19.890;2023-04-03T00:01:11;8.07;;;5.47;;
19691;SDS011;42748;50.016;19.890;2023-04-03T00:03:38;7.70;;;4.77;;
19691;SDS011;42748;50.016;19.890;2023-04-03T00:06:08;8.73;;;5.07;;
19691;SDS011;42748;50.016;19.890;2023-04-03T00:08:37;8.57;;;5.50;;
19691;SDS011;42748;50.016;19.890;2023-04-03T00:11:05;7.77;;;5.40;;
19691;SDS011;42748;50.016;19.890;2023-04-03T00:13:33;7.47;;;4.80;;
19691;SDS011;42748;50.016;19.890;2023-04-03T00:16:00;7.20;;;4.90;;
19691;SDS011;42748;50.016;19.890;2023-04-03T00:18:28;8.60;;;5.20;;
19691;SDS011;42748;50.016;19.890;2023-04-03T00:20:55;8.60;;;5.30;;
19691;SDS011;42748;50.016;19.890;2023-04-03T00:23:22;7.17;;;4.93;;
19691;SDS011;42748;50.016;19.890;2023-04-03T00:25:50;8.73;;;5.27;;
19691;SDS011;42748;50.016;19.890;2023-04-03T00:28:18;7.80;;;5.33;;
19691;SDS011;42748;50.016;19.890;2023-04-03T00:30:45;8.30;;;5.40;;
19691;SDS011;42748;50.016;19.890;2023-04-03T00:33:12;8.90;;;5.63;;
19691;SDS011;42748;50.016;19.890;2023-04-03T00:35:40;9.30;;;5.83;;
19691;SDS011;42748;50.016;19.890;2023-04-03T00:38:08;9.90;;;6.27;;
19691;SDS011;42748;50.016;19.890;2023-04-03T00:40:36;9.97;;;6.43;;
19691;SDS011;42748;50.016;19.890;2023-04-03T00:43:13;9.67;;;6.20;;
19691;SDS011;42748;50.016;19.890;2023-04-03T00:45:43;10.40;;;6.60;;
19691;SDS011;42748;50.016;19.890;2023-04-03T00:48:16;11.70;;;7.17;;
19691;SDS011;42748;50.016;19.890;2023-04-03T00:50:47;11.53;;;6.47;;
19691;SDS011;42748;50.016;19.890;2023-04-03T00:53:16;9.83;;;6.17;;
19691;SDS011;42748;50.016;19.890;2023-04-03T00:55:47;10.23;;;6.23;;
19691;SDS011;42748;50.016;19.890;2023-04-03T00:58:16;9.57;;;6.47;;
19691;SDS011;42748;50.016;19.890;2023-04-03T01:00:48;9.80;;;5.83;;
19691;SDS011;42748;50.016;19.890;2023-04-03T01:03:22;10.13;;;6.30;;
19691;SDS011;42748;50.016;19.890;2023-04-03T01:05:52;9.33;;;5.97;;
19691;SDS011;42748;50.016;19.890;2023-04-03T01:08:19;8.63;;;5.63;;
19691;SDS011;42748;50.016;19.890;2023-04-03T01:10:48;9.33;;;5.80;;
19691;SDS011;42748;50.016;19.890;2023-04-03T01:13:17;9.40;;;5.90;;
19691;SDS011;42748;50.016;19.890;2023-04-03T01:16:06;8.93;;;6.00;;
19691;SDS011;42748;50.016;19.890;2023-04-03T01:18:35;10.07;;;6.37;;
19691;SDS011;42748;50.016;19.890;2023-04-03T01:24:00;8.53;;;5.60;;
19691;SDS011;42748;50.016;19.890;2023-04-03T01:26:35;8.73;;;5.30;;
19691;SDS011;42748;50.016;19.890;2023-04-03T01:29:02;9.87;;;5.83;;
19691;SDS011;42748;50.016;19.890;2023-04-03T01:34:13;9.37;;;5.97;;
19691;SDS011;42748;50.016;19.890;2023-04-03T01:36:40;9.07;;;6.10;;
19691;SDS011;42748;50.016;19.890;2023-04-03T01:39:07;10.40;;;6.17;;
19691;SDS011;42748;50.016;19.890;2023-04-03T01:41:35;9.37;;;6.30;;
19691;SDS011;42748;50.016;19.890;2023-04-03T01:44:10;8.60;;;5.90;;
19691;SDS011;42748;50.016;19.890;2023-04-03T01:46:38;8.53;;;5.43;;
19691;SDS011;42748;50.016;19.890;2023-04-03T01:49:05;9.57;;;5.90;;
19691;SDS011;42748;50.016;19.890;2023-04-03T01:51:32;11.40;;;6.37;;
19691;SDS011;42748;50.016;19.890;2023-04-03T01:54:00;9.33;;;6.07;;
19691;SDS011;42748;50.016;19.890;2023-04-03T01:56:27;10.00;;;6.60;;
19691;SDS011;42748;50.016;19.890;2023-04-03T01:58:55;9.77;;;6.00;;
19691;SDS011;42748;50.016;19.890;2023-04-03T02:01:22;9.40;;;5.60;;
19691;SDS011;42748;50.016;19.890;2023-04-03T02:03:50;8.23;;;5.80;;
19691;SDS011;42748;50.016;19.890;2023-04-03T02:06:17;10.10;;;6.10;;
19691;SDS011;42748;50.016;19.890;2023-04-03T02:08:44;10.23;;;5.67;;
19691;SDS011;42748;50.016;19.890;2023-04-03T02:11:11;8.20;;;5.60;;
19691;SDS011;42748;50.016;19.890;2023-04-03T02:13:38;8.37;;;5.60;;
19691;SDS011;42748;50.016;19.890;2023-04-03T02:16:06;8.20;;;5.40;;
19691;SDS011;42748;50.016;19.890;2023-04-03T02:18:36;8.53;;;5.67;;
19691;SDS011;42748;50.016;19.890;2023-04-03T02:21:04;8.97;;;5.97;;
19691;SDS011;42748;50.016;19.890;2023-04-03T02:23:31;8.80;;;5.93;;
19691;SDS011;42748;50.016;19.890;2023-04-03T02:26:03;10.23;;;5.60;;
19691;SDS011;42748;50.016;19.890;2023-04-03T02:28:32;9.90;;;5.73;;
19691;SDS011;42748;50.016;19.890;2023-04-03T02:31:00;7.10;;;4.93;;
19691;SDS011;42748;50.016;19.890;2023-04-03T02:33:29;8.67;;;5.40;;
19691;SDS011;42748;50.016;19.890;2023-04-03T02:35:57;8.70;;;5.00;;
19691;SDS011;42748;50.016;19.890;2023-04-03T02:38:25;8.50;;;5.47;;
19691;SDS011;42748;50.016;19.890;2023-04-03T02:40:53;7.70;;;5.03;;
19691;SDS011;42748;50.016;19.890;2023-04-03T02:43:20;7.57;;;5.20;;
19691;SDS011;42748;50.016;19.890;2023-04-03T02:45:47;7.53;;;5.10;;
19691;SDS011;42748;50.016;19.890;2023-04-03T02:48:14;8.10;;;5.50;;
19691;SDS011;42748;50.016;19.890;2023-04-03T02:50:43;11.03;;;5.80;;
19691;SDS011;42748;50.016;19.890;2023-04-03T02:53:10;8.00;;;4.53;;
19691;SDS011;42748;50.016;19.890;2023-04-03T02:55:37;7.00;;;4.70;;
19691;SDS011;42748;50.016;19.890;2023-04-03T02:58:04;6.40;;;4.40;;
19691;SDS011;42748;50.016;19.890;2023-04-03T03:00:35;8.70;;;4.80;;
19691;SDS011;42748;50.016;19.890;2023-04-03T03:03:02;7.73;;;4.20;;
19691;SDS011;42748;50.016;19.890;2023-04-03T03:05:30;7.13;;;4.40;;
19691;SDS011;42748;50.016;19.890;2023-04-03T03:07:57;6.20;;;4.27;;
19691;SDS011;42748;50.016;19.890;2023-04-03T03:10:25;6.57;;;4.50;;
19691;SDS011;42748;50.016;19.890;2023-04-03T03:12:52;7.07;;;4.43;;
19691;SDS011;42748;50.016;19.890;2023-04-03T03:15:19;6.10;;;4.60;;
19691;SDS011;42748;50.016;19.890;2023-04-03T03:17:47;6.33;;;4.50;;
19691;SDS011;42748;50.016;19.890;2023-04-03T03:20:14;7.80;;;4.60;;
19691;SDS011;42748;50.016;19.890;2023-04-03T03:22:42;7.13;;;4.57;;
19691;SDS011;42748;50.016;19.890;2023-04-03T03:25:09;8.20;;;4.23;;
19691;SDS011;42748;50.016;19.890;2023-04-03T03:27:36;5.83;;;4.13;;
19691;SDS011;42748;50.016;19.890;2023-04-03T03:30:04;7.90;;;4.63;;
19691;SDS011;42748;50.016;19.890;2023-04-03T03:32:32;6.70;;;4.47;;
19691;SDS011;42748;50.016;19.890;2023-04-03T03:35:00;7.87;;;4.70;;
19691;SDS011;42748;50.016;19.890;2023-04-03T03:37:27;9.07;;;4.47;;
19691;SDS011;42748;50.016;19.890;2023-04-03T03:39:55;7.37;;;4.53;;
19691;SDS011;42748;50.016;19.890;2023-04-03T03:42:22;8.73;;;4.80;;
19691;SDS011;42748;50.016;19.890;2023-04-03T03:44:49;8.43;;;4.80;;
19691;SDS011;42748;50.016;19.890;2023-04-03T03:47:16;8.83;;;4.87;;
19691;SDS011;42748;50.016;19.890;2023-04-03T03:49:43;7.03;;;4.70;;
19691;SDS011;42748;50.016;19.890;2023-04-03T03:52:11;7.03;;;4.27;;
19691;SDS011;42748;50.016;19.890;2023-04-03T03:54:38;7.07;;;4.30;;
19691;SDS011;42748;50.016;19.890;2023-04-03T03:57:05;7.70;;;4.47;;
19691;SDS011;42748;50.016;19.890;2023-04-03T03:59:33;7.33;;;4.43;;
19691;SDS011;42748;50.016;19.890;2023-04-03T04:02:00;7.10;;;4.10;;
19691;SDS011;42748;50.016;19.890;2023-04-03T04:04:27;8.17;;;4.17;;
19691;SDS011;42748;50.016;19.890;2023-04-03T04:06:55;8.47;;;4.73;;
19691;SDS011;42748;50.016;19.890;2023-04-03T04:09:22;8.10;;;4.90;;
19691;SDS011;42748;50.016;19.890;2023-04-03T04:11:49;8.37;;;4.43;;
19691;SDS011;42748;50.016;19.890;2023-04-03T04:14:16;6.43;;;4.33;;
19691;SDS011;42748;50.016;19.890;2023-04-03T04:16:44;7.67;;;4.30;;
19691;SDS011;42748;50.016;19.890;2023-04-03T04:19:16;6.90;;;4.10;;
19691;SDS011;42748;50.016;19.890;2023-04-03T04:21:44;6.60;;;4.30;;
19691;SDS011;42748;50.016;19.890;2023-04-03T04:24:12;6.67;;;4.30;;
19691;SDS011;42748;50.016;19.890;2023-04-03T04:26:39;6.47;;;4.50;;
19691;SDS011;42748;50.016;19.890;2023-04-03T04:29:09;6.50;;;4.77;;
19691;SDS011;42748;50.016;19.890;2023-04-03T04:31:37;7.77;;;4.83;;
19691;SDS011;42748;50.016;19.890;2023-04-03T04:34:04;7.17;;;4.67;;
19691;SDS011;42748;50.016;19.890;2023-04-03T04:36:31;7.10;;;4.80;;
19691;SDS011;42748;50.016;19.890;2023-04-03T04:38:59;8.30;;;5.47;;
19691;SDS011;42748;50.016;19.890;2023-04-03T04:41:27;8.40;;;4.93;;
19691;SDS011;42748;50.016;19.890;2023-04-03T04:43:54;7.80;;;4.80;;
19691;SDS011;42748;50.016;19.890;2023-04-03T04:46:22;8.47;;;5.00;;
19691;SDS011;42748;50.016;19.890;2023-04-03T04:48:54;8.43;;;5.03;;
19691;SDS011;42748;50.016;19.890;2023-04-03T04:51:22;6.97;;;4.60;;
19691;SDS011;42748;50.016;19.890;2023-04-03T04:53:49;7.87;;;4.90;;
19691;SDS011;42748;50.016;19.890;2023-04-03T04:56:18;7.17;;;4.70;;
19691;SDS011;42748;50.016;19.890;2023-04-03T04:58:48;7.20;;;4.50;;
19691;SDS011;42748;50.016;19.890;2023-04-03T05:01:17;8.87;;;4.80;;
19691;SDS011;42748;50.016;19.890;2023-04-03T05:03:53;8.47;;;4.73;;
19691;SDS011;42748;50.016;19.890;2023-04-03T05:06:22;6.97;;;4.60;;
19691;SDS011;42748;50.016;19.890;2023-04-03T05:08:49;8.67;;;4.97;;
19691;SDS011;42748;50.016;19.890;2023-04-03T05:11:17;8.47;;;5.20;;
19691;SDS011;42748;50.016;19.890;2023-04-03T05:13:45;7.97;;;5.07;;
19691;SDS011;42748;50.016;19.890;2023-04-03T05:16:13;8.67;;;5.20;;
19691;SDS011;42748;50.016;19.890;2023-04-03T05:18:40;8.33;;;4.93;;
19691;SDS011;42748;50.016;19.890;2023-04-03T05:21:15;11.13;;;5.30;;
19691;SDS011;42748;50.016;19.890;2023-04-03T05:23:42;8.63;;;5.77;;
19691;SDS011;42748;50.016;19.890;2023-04-03T05:26:10;8.00;;;5.57;;
19691;SDS011;42748;50.016;19.890;2023-04-03T05:28:37;9.60;;;5.10;;
19691;SDS011;42748;50.016;19.890;2023-04-03T05:31:06;7.67;;;5.40;;
19691;SDS011;42748;50.016;19.890;2023-04-03T05:33:35;8.43;;;5.70;;
19691;SDS011;42748;50.016;19.890;2023-04-03T05:36:05;9.90;;;6.13;;
19691;SDS011;42748;50.016;19.890;2023-04-03T05:38:39;9.80;;;5.33;;
19691;SDS011;42748;50.016;19.890;2023-04-03T05:41:06;9.83;;;5.90;;
19691;SDS011;42748;50.016;19.890;2023-04-03T05:43:33;9.00;;;5.93;;
19691;SDS011;42748;50.016;19.890;2023-04-03T05:46:15;11.30;;;6.83;;
19691;SDS011;42748;50.016;19.890;2023-04-03T05:48:47;9.70;;;6.27;;
19691;SDS011;42748;50.016;19.890;2023-04-03T05:51:20;7.70;;;5.13;;
19691;SDS011;42748;50.016;19.890;2023-04-03T05:53:52;9.37;;;5.63;;
19691;SDS011;42748;50.016;19.890;2023-04-03T05:56:25;12.30;;;5.97;;
19691;SDS011;42748;50.016;19.890;2023-04-03T05:58:53;11.13;;;6.23;;
19691;SDS011;42748;50.016;19.890;2023-04-03T06:01:20;10.40;;;6.20;;
19691;SDS011;42748;50.016;19.890;2023-04-03T06:03:48;9.70;;;5.97;;
19691;SDS011;42748;50.016;19.890;2023-04-03T06:06:15;11.63;;;5.87;;
19691;SDS011;42748;50.016;19.890;2023-04-03T06:08:43;9.77;;;5.57;;
19691;SDS011;42748;50.016;19.890;2023-04-03T06:11:10;9.53;;;5.50;;
19691;SDS011;42748;50.016;19.890;2023-04-03T06:13:38;9.07;;;5.67;;
19691;SDS011;42748;50.016;19.890;2023-04-03T06:16:05;8.30;;;5.10;;
19691;SDS011;42748;50.016;19.890;2023-04-03T06:18:33;8.40;;;4.73;;
19691;SDS011;42748;50.016;19.890;2023-04-03T06:21:00;8.87;;;4.77;;
19691;SDS011;42748;50.016;19.890;2023-04-03T06:23:29;10.77;;;5.47;;
19691;SDS011;42748;50.016;19.890;2023-04-03T06:25:56;7.50;;;4.40;;
19691;SDS011;42748;50.016;19.890;2023-04-03T06:28:23;6.57;;;4.07;;
19691;SDS011;42748;50.016;19.890;2023-04-03T06:30:52;6.20;;;3.83;;
19691;SDS011;42748;50.016;19.890;2023-04-03T06:33:19;8.30;;;4.30;;
19691;SDS011;42748;50.016;19.890;2023-04-03T06:35:46;9.50;;;4.33;;
19691;SDS011;42748;50.016;19.890;2023-04-03T06:38:13;6.47;;;3.93;;
19691;SDS011;42748;50.016;19.890;2023-04-03T06:40:41;10.07;;;4.00;;
19691;SDS011;42748;50.016;19.890;2023-04-03T06:43:08;9.80;;;4.90;;
19691;SDS011;42748;50.016;19.890;2023-04-03T06:45:35;9.03;;;3.40;;
19691;SDS011;42748;50.016;19.890;2023-04-03T06:48:03;6.37;;;3.40;;
19691;SDS011;42748;50.016;19.890;2023-04-03T06:50:30;6.47;;;3.27;;
19691;SDS011;42748;50.016;19.890;2023-04-03T06:52:57;8.40;;;3.20;;
19691;SDS011;42748;50.016;19.890;2023-04-03T06:55:24;6.87;;;2.80;;
19691;SDS011;42748;50.016;19.890;2023-04-03T06:57:51;7.60;;;2.67;;
19691;SDS011;42748;50.016;19.890;2023-04-03T07:00:18;6.50;;;2.63;;
19691;SDS011;42748;50.016;19.890;2023-04-03T07:02:46;5.00;;;2.50;;
19691;SDS011;42748;50.016;19.890;2023-04-03T07:05:13;7.63;;;2.60;;
19691;SDS011;42748;50.016;19.890;2023-04-03T07:07:40;5.63;;;2.50;;
19691;SDS011;42748;50.016;19.890;2023-04-03T07:10:08;5.67;;;2.80;;
19691;SDS011;42748;50.016;19.890;2023-04-03T07:12:36;6.13;;;2.50;;
19691;SDS011;42748;50.016;19.890;2023-04-03T07:15:06;5.53;;;2.50;;
19691;SDS011;42748;50.016;19.890;2023-04-03T07:17:34;5.67;;;2.40;;
19691;SDS011;42748;50.016;19.890;2023-04-03T07:20:03;5.47;;;2.50;;
19691;SDS011;42748;50.016;19.890;2023-04-03T07:22:30;4.43;;;2.30;;
19691;SDS011;42748;50.016;19.890;2023-04-03T07:24:58;5.17;;;2.40;;
19691;SDS011;42748;50.016;19.890;2023-04-03T07:27:28;5.80;;;2.57;;
19691;SDS011;42748;50.016;19.890;2023-04-03T07:29:56;6.30;;;2.93;;
19691;SDS011;42748;50.016;19.890;2023-04-03T07:32:23;5.77;;;2.40;;
19691;SDS011;42748;50.016;19.890;2023-04-03T07:34:50;5.97;;;2.30;;
19691;SDS011;42748;50.016;19.890;2023-04-03T07:37:17;7.53;;;2.30;;
19691;SDS011;42748;50.016;19.890;2023-04-03T07:39:44;3.87;;;1.97;;
19691;SDS011;42748;50.016;19.890;2023-04-03T07:42:12;5.47;;;1.90;;
19691;SDS011;42748;50.016;19.890;2023-04-03T07:44:39;4.83;;;2.00;;
19691;SDS011;42748;50.016;19.890;2023-04-03T07:47:07;4.43;;;1.93;;
19691;SDS011;42748;50.016;19.890;2023-04-03T07:49:34;5.20;;;1.90;;
19691;SDS011;42748;50.016;19.890;2023-04-03T07:52:04;7.47;;;2.40;;
19691;SDS011;42748;50.016;19.890;2023-04-03T07:54:32;6.97;;;2.23;;
19691;SDS011;42748;50.016;19.890;2023-04-03T07:56:59;6.53;;;2.40;;
19691;SDS011;42748;50.016;19.890;2023-04-03T07:59:27;3.77;;;1.90;;
19691;SDS011;42748;50.016;19.890;2023-04-03T08:01:54;4.70;;;2.00;;
19691;SDS011;42748;50.016;19.890;2023-04-03T08:04:21;7.83;;;2.10;;
19691;SDS011;42748;50.016;19.890;2023-04-03T08:06:49;4.03;;;1.90;;
19691;SDS011;42748;50.016;19.890;2023-04-03T08:09:16;6.93;;;2.30;;
19691;SDS011;42748;50.016;19.890;2023-04-03T08:11:45;5.37;;;2.10;;
19691;SDS011;42748;50.016;19.890;2023-04-03T08:14:12;5.77;;;2.20;;
19691;SDS011;42748;50.016;19.890;2023-04-03T08:16:44;5.93;;;2.23;;
19691;SDS011;42748;50.016;19.890;2023-04-03T08:19:12;5.87;;;2.30;;
19691;SDS011;42748;50.016;19.890;2023-04-03T08:21:51;5.50;;;2.10;;
19691;SDS011;42748;50.016;19.890;2023-04-03T08:24:18;9.00;;;3.00;;
19691;SDS011;42748;50.016;19.890;2023-04-03T08:26:45;4.20;;;2.00;;
19691;SDS011;42748;50.016;19.890;2023-04-03T08:29:13;5.87;;;2.30;;
19691;SDS011;42748;50.016;19.890;2023-04-03T08:31:40;4.80;;;2.37;;
19691;SDS011;42748;50.016;19.890;2023-04-03T08:34:07;5.63;;;2.40;;
19691;SDS011;42748;50.016;19.890;2023-04-03T08:36:35;6.87;;;2.63;;
19691;SDS011;42748;50.016;19.890;2023-04-03T08:39:02;7.33;;;2.60;;
19691;SDS011;42748;50.016;19.890;2023-04-03T08:41:37;5.90;;;2.80;;
19691;SDS011;42748;50.016;19.890;2023-04-03T08:44:21;7.40;;;2.70;;
19691;SDS011;42748;50.016;19.890;2023-04-03T08:50:02;7.03;;;2.00;;
19691;SDS011;42748;50.016;19.890;2023-04-03T08:55:28;6.17;;;2.27;;
19691;SDS011;42748;50.016;19.890;2023-04-03T09:01:02;6.50;;;2.60;;
19691;SDS011;42748;50.016;19.890;2023-04-03T09:03:32;5.47;;;2.70;;
19691;SDS011;42748;50.016;19.890;2023-04-03T09:06:05;5.57;;;2.47;;
19691;SDS011;42748;50.016;19.890;2023-04-03T09:11:36;6.50;;;2.73;;
19691;SDS011;42748;50.016;19.890;2023-04-03T09:14:36;8.57;;;3.03;;
19691;SDS011;42748;50.016;19.890;2023-04-03T09:19:49;5.97;;;3.03;;
19691;SDS011;42748;50.016;19.890;2023-04-03T09:22:25;7.90;;;3.00;;
19691;SDS011;42748;50.016;19.890;2023-04-03T09:27:46;9.33;;;2.80;;
19691;SDS011;42748;50.016;19.890;2023-04-03T09:30:20;8.87;;;2.60;;
19691;SDS011;42748;50.016;19.890;2023-04-03T09:32:51;9.17;;;3.00;;
19691;SDS011;42748;50.016;19.890;2023-04-03T09:35:27;7.07;;;3.67;;
19691;SDS011;42748;50.016;19.890;2023-04-03T09:40:49;6.07;;;3.17;;
19691;SDS011;42748;50.016;19.890;2023-04-03T09:43:32;5.53;;;3.27;;
19691;SDS011;42748;50.016;19.890;2023-04-03T09:46:28;7.77;;;3.33;;
19691;SDS011;42748;50.016;19.890;2023-04-03T09:48:59;7.37;;;3.57;;
19691;SDS011;42748;50.016;19.890;2023-04-03T09:51:35;6.90;;;3.67;;
19691;SDS011;42748;50.016;19.890;2023-04-03T09:57:20;8.03;;;3.37;;
19691;SDS011;42748;50.016;19.890;2023-04-03T09:59:47;7.00;;;3.10;;
19691;SDS011;42748;50.016;19.890;2023-04-03T10:05:11;7.23;;;3.10;;
19691;SDS011;42748;50.016;19.890;2023-04-03T10:10:40;8.60;;;2.77;;
19691;SDS011;42748;50.016;19.890;2023-04-03T10:13:16;7.67;;;3.30;;
19691;SDS011;42748;50.016;19.890;2023-04-03T10:15:55;7.07;;;3.20;;
19691;SDS011;42748;50.016;19.890;2023-04-03T10:21:23;5.87;;;2.87;;
19691;SDS011;42748;50.016;19.890;2023-04-03T10:27:01;8.33;;;3.50;;
19691;SDS011;42748;50.016;19.890;2023-04-03T10:29:33;5.60;;;3.10;;
19691;SDS011;42748;50.016;19.890;2023-04-03T10:43:44;8.50;;;3.50;;
19691;SDS011;42748;50.016;19.890;2023-04-03T10:46:44;6.43;;;3.20;;
19691;SDS011;42748;50.016;19.890;2023-04-03T10:57:51;7.33;;;3.10;;
19691;SDS011;42748;50.016;19.890;2023-04-03T11:00:33;5.47;;;3.00;;
19691;SDS011;42748;50.016;19.890;2023-04-03T11:03:26;6.33;;;3.00;;
19691;SDS011;42748;50.016;19.890;2023-04-03T11:05:59;7.07;;;2.90;;
19691;SDS011;42748;50.016;19.890;2023-04-03T11:08:37;6.87;;;3.50;;
19691;SDS011;42748;50.016;19.890;2023-04-03T11:11:09;8.10;;;3.40;;
19691;SDS011;42748;50.016;19.890;2023-04-03T11:13:43;9.77;;;3.80;;
19691;SDS011;42748;50.016;19.890;2023-04-03T11:16:24;6.07;;;3.00;;
19691;SDS011;42748;50.016;19.890;2023-04-03T11:19:01;7.93;;;3.30;;
19691;SDS011;42748;50.016;19.890;2023-04-03T11:21:33;9.73;;;3.70;;
19691;SDS011;42748;50.016;19.890;2023-04-03T11:24:10;5.30;;;3.20;;
19691;SDS011;42748;50.016;19.890;2023-04-03T11:26:47;6.27;;;2.83;;
19691;SDS011;42748;50.016;19.890;2023-04-03T11:29:19;4.87;;;2.77;;
19691;SDS011;42748;50.016;19.890;2023-04-03T11:32:20;6.23;;;3.30;;
19691;SDS011;42748;50.016;19.890;2023-04-03T11:35:00;6.40;;;2.93;;
19691;SDS011;42748;50.016;19.890;2023-04-03T11:37:33;6.47;;;2.93;;
19691;SDS011;42748;50.016;19.890;2023-04-03T11:43:07;7.30;;;3.50;;
19691;SDS011;42748;50.016;19.890;2023-04-03T11:45:35;9.27;;;3.27;;
19691;SDS011;42748;50.016;19.890;2023-04-03T11:50:50;6.43;;;3.10;;
19691;SDS011;42748;50.016;19.890;2023-04-03T11:53:26;8.20;;;3.20;;
19691;SDS011;42748;50.016;19.890;2023-04-03T11:55:59;7.97;;;2.93;;
19691;SDS011;42748;50.016;19.890;2023-04-03T11:58:32;6.83;;;2.97;;
19691;SDS011;42748;50.016;19.890;2023-04-03T12:01:08;8.13;;;3.13;;
19691;SDS011;42748;50.016;19.890;2023-04-03T12:11:13;6.80;;;3.07;;
19691;SDS011;42748;50.016;19.890;2023-04-03T12:16:31;6.23;;;3.07;;
19691;SDS011;42748;50.016;19.890;2023-04-03T12:35:28;7.10;;;2.60;;
19691;SDS011;42748;50.016;19.890;2023-04-03T12:41:19;4.63;;;2.57;;
19691;SDS011;42748;50.016;19.890;2023-04-03T12:46:49;5.23;;;2.27;;
19691;SDS011;42748;50.016;19.890;2023-04-03T12:49:38;5.17;;;2.30;;
19691;SDS011;42748;50.016;19.890;2023-04-03T12:55:00;5.07;;;2.27;;
19691;SDS011;42748;50.016;19.890;2023-04-03T12:57:30;5.07;;;2.50;;
19691;SDS011;42748;50.016;19.890;2023-04-03T12:59:59;9.10;;;2.60;;
19691;SDS011;42748;50.016;19.890;2023-04-03T13:02:29;5.53;;;2.50;;
19691;SDS011;42748;50.016;19.890;2023-04-03T13:05:05;4.27;;;2.27;;
19691;SDS011;42748;50.016;19.890;2023-04-03T13:07:35;5.50;;;2.47;;
19691;SDS011;42748;50.016;19.890;2023-04-03T13:12:35;6.27;;;2.30;;
19691;SDS011;42748;50.016;19.890;2023-04-03T13:15:21;5.17;;;2.50;;
19691;SDS011;42748;50.016;19.890;2023-04-03T13:17:49;5.77;;;2.17;;
19691;SDS011;42748;50.016;19.890;2023-04-03T13:20:29;6.37;;;2.50;;
19691;SDS011;42748;50.016;19.890;2023-04-03T13:23:00;5.80;;;2.50;;
19691;SDS011;42748;50.016;19.890;2023-04-03T13:25:29;5.67;;;2.40;;
19691;SDS011;42748;50.016;19.890;2023-04-03T13:28:02;6.03;;;2.40;;
19691;SDS011;42748;50.016;19.890;2023-04-03T13:30:39;5.03;;;2.40;;
19691;SDS011;42748;50.016;19.890;2023-04-03T13:33:27;5.20;;;2.13;;
19691;SDS011;42748;50.016;19.890;2023-04-03T13:38:42;7.50;;;2.57;;
19691;SDS011;42748;50.016;19.890;2023-04-03T13:41:27;4.60;;;2.20;;
19691;SDS011;42748;50.016;19.890;2023-04-03T13:46:50;6.23;;;2.50;;
19691;SDS011;42748;50.016;19.890;2023-04-03T13:51:49;6.90;;;3.17;;
19691;SDS011;42748;50.016;19.890;2023-04-03T13:54:36;6.13;;;2.30;;
19691;SDS011;42748;50.016;19.890;2023-04-03T13:57:12;6.90;;;2.87;;
19691;SDS011;42748;50.016;19.890;2023-04-03T13:59:41;7.27;;;2.63;;
19691;SDS011;42748;50.016;19.890;2023-04-03T14:02:14;6.77;;;2.80;;
19691;SDS011;42748;50.016;19.890;2023-04-03T14:07:12;5.83;;;2.50;;
19691;SDS011;42748;50.016;19.890;2023-04-03T14:09:39;5.10;;;2.73;;
19691;SDS011;42748;50.016;19.890;2023-04-03T14:12:08;6.23;;;3.10;;
19691;SDS011;42748;50.016;19.890;2023-04-03T14:14:59;8.00;;;3.10;;
19691;SDS011;42748;50.016;19.890;2023-04-03T14:17:27;6.60;;;2.97;;
19691;SDS011;42748;50.016;19.890;2023-04-03T14:19:55;9.33;;;2.80;;
19691;SDS011;42748;50.016;19.890;2023-04-03T14:24:55;7.27;;;2.50;;
19691;SDS011;42748;50.016;19.890;2023-04-03T14:29:54;6.53;;;2.60;;
19691;SDS011;42748;50.016;19.890;2023-04-03T14:32:23;6.27;;;2.67;;
19691;SDS011;42748;50.016;19.890;2023-04-03T14:34:51;6.13;;;2.70;;
19691;SDS011;42748;50.016;19.890;2023-04-03T14:37:20;7.50;;;2.83;;
19691;SDS011;42748;50.016;19.890;2023-04-03T14:39:50;7.57;;;2.70;;
19691;SDS011;42748;50.016;19.890;2023-04-03T14:42:21;5.03;;;2.50;;
19691;SDS011;42748;50.016;19.890;2023-04-03T14:44:53;6.20;;;2.90;;
19691;SDS011;42748;50.016;19.890;2023-04-03T14:47:23;7.40;;;2.93;;
19691;SDS011;42748;50.016;19.890;2023-04-03T14:50:01;9.13;;;3.20;;
19691;SDS011;42748;50.016;19.890;2023-04-03T14:52:31;6.80;;;3.43;;
19691;SDS011;42748;50.016;19.890;2023-04-03T14:55:00;6.67;;;2.87;;
19691;SDS011;42748;50.016;19.890;2023-04-03T14:57:29;5.43;;;2.70;;
19691;SDS011;42748;50.016;19.890;2023-04-03T14:59:57;6.20;;;2.93;;
19691;SDS011;42748;50.016;19.890;2023-04-03T15:05:00;8.27;;;2.73;;
19691;SDS011;42748;50.016;19.890;2023-04-03T15:07:32;4.57;;;2.50;;
19691;SDS011;42748;50.016;19.890;2023-04-03T15:10:03;5.83;;;2.50;;
19691;SDS011;42748;50.016;19.890;2023-04-03T15:12:53;6.00;;;2.70;;
19691;SDS011;42748;50.016;19.890;2023-04-03T15:15:22;6.27;;;2.40;;
19691;SDS011;42748;50.016;19.890;2023-04-03T15:17:51;4.90;;;2.20;;
19691;SDS011;42748;50.016;19.890;2023-04-03T15:20:21;5.80;;;2.30;;
19691;SDS011;42748;50.016;19.890;2023-04-03T15:22:50;5.00;;;2.37;;
19691;SDS011;42748;50.016;19.890;2023-04-03T15:25:17;5.60;;;2.30;;
19691;SDS011;42748;50.016;19.890;2023-04-03T15:27:45;6.73;;;2.50;;
19691;SDS011;42748;50.016;19.890;2023-04-03T15:30:16;6.80;;;2.67;;
19691;SDS011;42748;50.016;19.890;2023-04-03T15:32:45;5.10;;;2.70;;
19691;SDS011;42748;50.016;19.890;2023-04-03T15:35:13;6.80;;;2.80;;
19691;SDS011;42748;50.016;19.890;2023-04-03T15:37:40;5.47;;;2.67;;
19691;SDS011;42748;50.016;19.890;2023-04-03T15:40:07;8.70;;;2.87;;
19691;SDS011;42748;50.016;19.890;2023-04-03T15:42:35;4.93;;;2.50;;
19691;SDS011;42748;50.016;19.890;2023-04-03T15:45:03;5.93;;;2.60;;
19691;SDS011;42748;50.016;19.890;2023-04-03T15:47:30;5.90;;;2.60;;
19691;SDS011;42748;50.016;19.890;2023-04-03T15:49:57;6.97;;;2.53;;
19691;SDS011;42748;50.016;19.890;2023-04-03T15:52:24;6.60;;;2.50;;
19691;SDS011;42748;50.016;19.890;2023-04-03T15:54:51;5.90;;;2.90;;
19691;SDS011;42748;50.016;19.890;2023-04-03T15:57:18;7.43;;;2.83;;
19691;SDS011;42748;50.016;19.890;2023-04-03T15:59:46;6.80;;;2.90;;
19691;SDS011;42748;50.016;19.890;2023-04-03T16:02:13;7.13;;;2.57;;
19691;SDS011;42748;50.016;19.890;2023-04-03T16:04:40;8.07;;;2.57;;
19691;SDS011;42748;50.016;19.890;2023-04-03T16:07:08;6.93;;;2.93;;
19691;SDS011;42748;50.016;19.890;2023-04-03T16:09:35;5.50;;;2.43;;
19691;SDS011;42748;50.016;19.890;2023-04-03T16:12:03;6.93;;;2.83;;
19691;SDS011;42748;50.016;19.890;2023-04-03T16:14:30;5.87;;;2.73;;
19691;SDS011;42748;50.016;19.890;2023-04-03T16:16:57;5.07;;;2.57;;
19691;SDS011;42748;50.016;19.890;2023-04-03T16:19:26;5.90;;;2.80;;
19691;SDS011;42748;50.016;19.890;2023-04-03T16:21:54;6.93;;;2.53;;
19691;SDS011;42748;50.016;19.890;2023-04-03T16:24:21;8.77;;;2.60;;
19691;SDS011;42748;50.016;19.890;2023-04-03T16:26:48;8.10;;;2.33;;
19691;SDS011;42748;50.016;19.890;2023-04-03T16:29:16;3.73;;;2.30;;
19691;SDS011;42748;50.016;19.890;2023-04-03T16:31:43;5.87;;;2.50;;
19691;SDS011;42748;50.016;19.890;2023-04-03T16:34:11;3.77;;;1.90;;
19691;SDS011;42748;50.016;19.890;2023-04-03T16:36:38;6.27;;;2.60;;
19691;SDS011;42748;50.016;19.890;2023-04-03T16:39:06;6.67;;;2.27;;
19691;SDS011;42748;50.016;19.890;2023-04-03T16:41:35;7.17;;;2.20;;
19691;SDS011;42748;50.016;19.890;2023-04-03T16:44:03;6.87;;;2.57;;
19691;SDS011;42748;50.016;19.890;2023-04-03T16:46:30;6.63;;;2.70;;
19691;SDS011;42748;50.016;19.890;2023-04-03T16:48:57;5.80;;;2.53;;
19691;SDS011;42748;50.016;19.890;2023-04-03T16:51:24;7.47;;;2.80;;
19691;SDS011;42748;50.016;19.890;2023-04-03T16:53:51;7.10;;;3.00;;